Time;durP1;ratioP1;P1;durP2;ratioP2;P2;SDS_P1;SDS_P2;PMS_P1;PMS_P2;Temp;Humidity;BMP_temperature;BMP_pressure;BME280_temperature;BME280_humidity;BME280_pressure;Samples;Min_cycle;Max_cycle;Signal;HPM_P1;HPM_P2
2021/11/28 00:02:21;;;;;;;32.15;16.63;;;4.10;99.90;;;;;;4989237;28;20046;-85
2021/11/28 00:04:52;;;;;;;31.70;17.92;;;4.00;99.90;;;;;;4979979;28;20042;-85
2021/11/28 00:10:13;;;;;;;30.73;16.27;;;4.10;99.90;;;;;;4944525;28;20038;-85
2021/11/28 00:12:45;;;;;;;31.55;18.10;;;4.00;99.90;;;;;;4982829;28;20409;-86
2021/11/28 00:15:15;;;;;;;28.73;16.63;;;4.00;99.90;;;;;;4997089;28;20065;-85
2021/11/28 00:17:41;;;;;;;30.98;16.60;;;4.10;99.90;;;;;;4989618;28;20042;-85
2021/11/28 00:20:12;;;;;;;29.83;16.83;;;4.10;99.90;;;;;;4981524;28;20257;-85
2021/11/28 00:22:38;;;;;;;28.33;16.20;;;4.10;99.90;;;;;;4992913;28;20040;-87
2021/11/28 00:25:07;;;;;;;29.65;17.70;;;4.10;99.90;;;;;;4987741;28;20078;-85
2021/11/28 00:27:33;;;;;;;30.35;18.40;;;4.10;99.90;;;;;;4976176;28;20042;-85
2021/11/28 00:30:00;;;;;;;31.00;17.70;;;4.10;99.90;;;;;;4974160;28;20520;-85
2021/11/28 00:32:25;;;;;;;30.67;18.08;;;4.10;99.90;;;;;;4992124;28;20448;-88
2021/11/28 00:34:52;;;;;;;30.80;16.85;;;4.20;99.90;;;;;;5000140;28;20042;-85
2021/11/28 00:37:18;;;;;;;32.20;17.55;;;4.20;99.90;;;;;;4995210;28;20072;-86
2021/11/28 00:39:45;;;;;;;30.45;17.98;;;4.20;99.90;;;;;;4976338;28;20066;-85
2021/11/28 00:42:11;;;;;;;30.70;17.48;;;4.20;99.90;;;;;;4980644;28;20559;-85
2021/11/28 00:44:37;;;;;;;31.63;17.33;;;4.20;99.90;;;;;;4981678;28;20042;-85
2021/11/28 00:47:03;;;;;;;31.95;18.27;;;4.20;99.90;;;;;;4984978;28;20033;-85
2021/11/28 00:49:28;;;;;;;30.20;17.55;;;4.20;99.90;;;;;;4986339;28;20120;-87
2021/11/28 00:51:57;;;;;;;30.60;17.60;;;4.20;99.90;;;;;;4984494;28;20042;-86
2021/11/28 00:54:26;;;;;;;30.23;17.75;;;4.20;99.90;;;;;;4983527;28;20044;-87
2021/11/28 00:56:52;;;;;;;31.60;17.50;;;4.20;99.90;;;;;;4994132;28;20042;-85
2021/11/28 00:59:18;;;;;;;30.98;18.00;;;4.10;99.90;;;;;;4994600;28;20068;-85
2021/11/28 01:01:43;;;;;;;31.55;17.92;;;4.20;99.90;;;;;;4983694;28;20050;-85
2021/11/28 01:04:09;;;;;;;34.92;19.50;;;4.20;99.90;;;;;;4973385;28;20466;-85
2021/11/28 01:06:35;;;;;;;26.73;16.83;;;4.20;99.90;;;;;;4974805;28;20038;-85
2021/11/28 01:09:03;;;;;;;30.00;17.48;;;4.20;99.90;;;;;;4991455;28;20038;-84
2021/11/28 01:11:30;;;;;;;29.30;17.13;;;4.20;99.90;;;;;;4983821;28;20048;-84
2021/11/28 01:13:56;;;;;;;29.77;17.63;;;4.10;99.90;;;;;;4983551;28;20516;-84
2021/11/28 01:16:22;;;;;;;29.67;16.58;;;4.20;99.90;;;;;;4988644;28;20042;-85
2021/11/28 01:18:48;;;;;;;28.60;16.63;;;4.20;99.90;;;;;;4986093;28;20539;-85
2021/11/28 01:21:14;;;;;;;29.10;16.27;;;4.10;99.90;;;;;;4989516;28;20029;-85
2021/11/28 01:23:40;;;;;;;28.42;16.05;;;4.10;99.90;;;;;;4973967;28;20073;-85
2021/11/28 01:26:06;;;;;;;34.58;17.48;;;4.10;99.90;;;;;;4974776;28;20083;-85
2021/11/28 01:28:32;;;;;;;29.38;15.90;;;4.10;99.90;;;;;;4986778;28;20137;-84
2021/11/28 01:30:57;;;;;;;29.00;16.10;;;4.10;99.90;;;;;;4992127;28;20030;-84
2021/11/28 01:33:23;;;;;;;26.30;15.68;;;4.10;99.90;;;;;;4992992;28;20504;-84
2021/11/28 01:35:49;;;;;;;25.45;15.75;;;4.10;99.90;;;;;;4990164;28;20044;-85
2021/11/28 01:38:18;;;;;;;29.23;15.55;;;4.10;99.90;;;;;;4993683;28;20089;-85
2021/11/28 01:40:45;;;;;;;29.17;16.10;;;4.10;99.90;;;;;;4990649;28;20042;-85
2021/11/28 01:43:13;;;;;;;27.98;16.10;;;4.10;99.90;;;;;;4977008;28;20495;-85
2021/11/28 01:45:39;;;;;;;27.10;15.60;;;4.00;99.90;;;;;;4976640;28;20042;-85
2021/11/28 01:48:07;;;;;;;26.13;15.52;;;4.00;99.90;;;;;;4982778;28;20041;-85
2021/11/28 01:50:36;;;;;;;27.20;16.30;;;4.00;99.90;;;;;;4990241;28;20034;-85
2021/11/28 01:53:04;;;;;;;29.00;15.63;;;4.00;99.90;;;;;;4978994;28;20088;-84
2021/11/28 01:55:32;;;;;;;29.40;15.77;;;3.90;99.90;;;;;;4993624;28;20477;-84
2021/11/28 01:58:00;;;;;;;27.42;15.43;;;3.90;99.90;;;;;;4969793;28;20037;-84
2021/11/28 02:00:29;;;;;;;27.90;15.98;;;4.00;99.90;;;;;;4989118;28;20463;-84
2021/11/28 02:02:58;;;;;;;25.60;15.30;;;4.00;99.90;;;;;;4971358;28;20038;-85
2021/11/28 02:05:24;;;;;;;26.58;16.77;;;3.90;99.90;;;;;;4977378;28;20038;-85
2021/11/28 02:07:50;;;;;;;26.80;15.45;;;3.90;99.90;;;;;;4992819;28;20034;-86
2021/11/28 02:10:17;;;;;;;30.98;16.63;;;3.90;99.90;;;;;;4993322;28;20030;-85
2021/11/28 02:12:45;;;;;;;30.15;16.60;;;3.90;99.90;;;;;;4963471;28;20092;-85
2021/11/28 02:15:11;;;;;;;30.17;16.10;;;3.90;99.90;;;;;;4964555;28;20042;-84
2021/11/28 02:17:38;;;;;;;26.50;16.02;;;3.80;99.90;;;;;;4997636;28;20095;-85
2021/11/28 02:20:09;;;;;;;26.55;15.10;;;3.80;99.90;;;;;;4967547;28;20466;-85
2021/11/28 02:22:37;;;;;;;27.20;15.68;;;3.80;99.90;;;;;;4990363;28;20218;-85
2021/11/28 02:25:08;;;;;;;28.20;16.08;;;3.80;99.90;;;;;;4990860;28;20125;-84
2021/11/28 02:27:34;;;;;;;27.73;14.95;;;3.70;99.90;;;;;;4991453;28;20037;-85
2021/11/28 02:30:00;;;;;;;27.38;16.20;;;3.70;99.90;;;;;;4987488;28;20041;-85
2021/11/28 02:32:25;;;;;;;30.38;15.38;;;3.70;99.90;;;;;;4992965;28;20515;-84
2021/11/28 02:34:51;;;;;;;28.10;15.45;;;3.70;99.90;;;;;;4982273;28;20157;-84
2021/11/28 02:37:16;;;;;;;25.88;14.90;;;3.60;99.90;;;;;;4977870;28;20121;-85
2021/11/28 02:39:42;;;;;;;28.25;15.48;;;3.70;99.90;;;;;;4994605;28;20142;-85
2021/11/28 02:42:08;;;;;;;30.42;15.68;;;3.60;99.90;;;;;;4980162;28;20039;-85
2021/11/28 02:44:34;;;;;;;29.65;16.10;;;3.60;99.90;;;;;;4992539;28;20042;-85
2021/11/28 02:47:01;;;;;;;28.48;14.43;;;3.60;99.90;;;;;;4987288;28;20484;-85
2021/11/28 02:49:27;;;;;;;28.33;15.68;;;3.60;99.90;;;;;;4990817;28;20039;-85
2021/11/28 02:51:53;;;;;;;30.60;15.43;;;3.60;99.90;;;;;;4996285;28;20504;-85
2021/11/28 02:54:19;;;;;;;28.52;15.75;;;3.60;99.90;;;;;;4988064;28;20037;-85
2021/11/28 02:56:47;;;;;;;26.42;15.70;;;3.60;99.90;;;;;;4995573;28;20038;-85
2021/11/28 02:59:13;;;;;;;28.40;14.98;;;3.70;99.90;;;;;;4995606;28;20049;-85
2021/11/28 03:01:40;;;;;;;30.52;15.63;;;3.60;99.90;;;;;;4986621;28;20081;-85
2021/11/28 03:04:05;;;;;;;29.83;14.93;;;3.60;99.90;;;;;;4975734;28;20571;-85
2021/11/28 03:06:31;;;;;;;23.50;13.13;;;3.70;99.90;;;;;;4984743;28;20344;-85
2021/11/28 03:08:56;;;;;;;21.10;12.52;;;3.60;99.90;;;;;;4974991;28;20033;-85
2021/11/28 03:11:22;;;;;;;29.20;14.18;;;3.60;99.90;;;;;;4985982;28;20033;-85
2021/11/28 03:13:51;;;;;;;28.20;13.88;;;3.60;99.90;;;;;;4981191;28;20046;-84
2021/11/28 03:16:21;;;;;;;23.17;13.75;;;3.60;99.90;;;;;;4982639;28;20047;-86
2021/11/28 03:18:48;;;;;;;21.17;12.57;;;3.60;99.90;;;;;;4983039;28;20041;-84
2021/11/28 03:21:17;;;;;;;25.52;13.05;;;3.50;99.90;;;;;;4975003;28;20125;-84
2021/11/28 03:23:46;;;;;;;23.23;13.25;;;3.60;99.90;;;;;;4993378;28;20168;-84
2021/11/28 03:26:14;;;;;;;25.67;14.43;;;3.50;99.90;;;;;;4990814;28;20034;-85
2021/11/28 03:28:55;;;;;;;28.95;14.73;;;3.50;99.90;;;;;;4994914;28;20037;-85
2021/11/28 03:31:24;;;;;;;28.40;15.40;;;3.50;99.90;;;;;;4988957;28;20049;-84
2021/11/28 03:33:50;;;;;;;25.13;14.77;;;3.50;99.90;;;;;;4993077;28;20062;-84
2021/11/28 03:36:19;;;;;;;30.77;15.70;;;3.50;99.90;;;;;;4992358;28;20046;-85
2021/11/28 03:38:46;;;;;;;30.45;16.90;;;3.50;99.90;;;;;;4986600;28;20062;-84
2021/11/28 03:41:12;;;;;;;29.30;16.60;;;3.50;99.90;;;;;;4989533;28;20034;-85
2021/11/28 03:43:39;;;;;;;31.25;16.30;;;3.50;99.90;;;;;;4986641;28;20184;-85
2021/11/28 03:46:06;;;;;;;29.95;16.25;;;3.60;99.90;;;;;;4985887;28;20038;-84
2021/11/28 03:48:32;;;;;;;31.00;16.83;;;3.60;99.90;;;;;;4992528;28;20041;-84
2021/11/28 03:50:57;;;;;;;32.83;16.73;;;3.60;99.90;;;;;;4985643;28;20035;-84
2021/11/28 03:53:23;;;;;;;30.85;17.10;;;3.50;99.90;;;;;;4989810;28;20092;-84
2021/11/28 03:55:50;;;;;;;28.77;16.83;;;3.50;99.90;;;;;;4991903;28;20120;-84
2021/11/28 03:58:16;;;;;;;29.48;16.20;;;3.50;99.90;;;;;;4989900;28;20038;-84
2021/11/28 04:00:42;;;;;;;28.65;16.13;;;3.50;99.90;;;;;;4992901;28;20403;-84
2021/11/28 04:03:10;;;;;;;29.92;16.13;;;3.50;99.90;;;;;;4969578;28;20061;-84
2021/11/28 04:05:35;;;;;;;30.05;16.30;;;3.50;99.90;;;;;;4998748;28;20091;-84
2021/11/28 04:08:01;;;;;;;27.63;15.75;;;3.50;99.90;;;;;;4972653;28;20069;-85
2021/11/28 04:10:27;;;;;;;27.65;16.02;;;3.50;99.90;;;;;;4990880;28;20034;-84
2021/11/28 04:12:52;;;;;;;32.33;18.02;;;3.60;99.90;;;;;;4971794;28;20042;-85
2021/11/28 04:15:18;;;;;;;31.20;17.73;;;3.60;99.90;;;;;;4984611;28;20034;-85
2021/11/28 04:17:44;;;;;;;35.28;18.45;;;3.60;99.90;;;;;;4982758;28;20049;-85
2021/11/28 04:20:10;;;;;;;36.00;19.80;;;3.60;99.90;;;;;;4991810;28;20033;-85
2021/11/28 04:22:36;;;;;;;35.22;19.98;;;3.60;99.90;;;;;;4993616;28;20044;-85
2021/11/28 04:25:03;;;;;;;37.50;19.75;;;3.70;99.90;;;;;;4986225;28;20042;-85
2021/11/28 04:27:29;;;;;;;37.05;18.98;;;3.70;99.90;;;;;;4983274;28;20049;-85
2021/11/28 04:29:55;;;;;;;32.03;18.30;;;3.70;99.90;;;;;;4984865;28;20034;-85
2021/11/28 04:32:20;;;;;;;34.55;18.45;;;3.70;99.90;;;;;;4979955;28;20045;-85
2021/11/28 04:34:46;;;;;;;35.78;19.02;;;3.70;99.90;;;;;;4989593;28;20093;-86
2021/11/28 04:37:12;;;;;;;33.60;19.08;;;3.70;99.90;;;;;;4999969;28;20229;-85
2021/11/28 04:39:38;;;;;;;31.55;17.90;;;3.80;99.90;;;;;;4992908;28;20412;-85
2021/11/28 04:42:04;;;;;;;34.30;18.13;;;3.80;99.90;;;;;;4984446;28;20030;-85
2021/11/28 04:44:30;;;;;;;33.38;18.40;;;3.80;99.90;;;;;;4986862;28;20038;-84
2021/11/28 04:46:57;;;;;;;34.25;18.80;;;3.80;99.90;;;;;;4980710;28;20096;-84
2021/11/28 04:49:23;;;;;;;29.55;17.23;;;3.80;99.90;;;;;;4989089;28;20038;-84
2021/11/28 04:51:49;;;;;;;31.08;17.75;;;3.80;99.90;;;;;;4991366;28;20038;-84
2021/11/28 04:54:16;;;;;;;30.50;17.42;;;3.70;99.90;;;;;;4988111;28;20066;-83
2021/11/28 04:56:42;;;;;;;34.30;17.70;;;3.70;99.90;;;;;;4978426;28;20120;-83
2021/11/28 04:59:08;;;;;;;30.05;17.05;;;3.60;99.90;;;;;;4984498;28;20047;-83
2021/11/28 05:01:33;;;;;;;31.88;17.17;;;3.50;99.90;;;;;;4984580;28;20118;-83
2021/11/28 05:03:59;;;;;;;30.25;15.90;;;3.40;99.90;;;;;;4962206;28;20061;-84
2021/11/28 05:06:25;;;;;;;25.23;15.15;;;3.40;99.90;;;;;;4974702;28;20038;-85
2021/11/28 05:08:51;;;;;;;30.38;16.83;;;3.30;99.90;;;;;;4974277;28;20089;-83
2021/11/28 05:11:16;;;;;;;27.92;15.77;;;3.20;99.90;;;;;;4991445;28;20041;-83
2021/11/28 05:13:42;;;;;;;32.25;17.50;;;3.20;99.90;;;;;;4975657;28;20443;-83
2021/11/28 05:16:07;;;;;;;32.53;17.15;;;3.10;99.90;;;;;;4992227;28;20095;-83
2021/11/28 05:18:33;;;;;;;34.80;18.08;;;3.10;99.90;;;;;;4983973;28;20396;-85
2021/11/28 05:20:59;;;;;;;35.33;17.70;;;3.10;99.90;;;;;;4989856;28;20536;-83
2021/11/28 05:23:24;;;;;;;32.55;17.10;;;3.00;99.90;;;;;;4991316;28;20488;-83
2021/11/28 05:25:50;;;;;;;31.77;17.10;;;3.00;99.90;;;;;;4976023;28;20468;-83
2021/11/28 05:28:15;;;;;;;30.10;16.75;;;3.00;99.90;;;;;;4980233;28;20515;-84
2021/11/28 05:30:41;;;;;;;34.65;17.67;;;3.00;99.90;;;;;;4971725;28;20120;-83
2021/11/28 05:33:07;;;;;;;30.88;16.63;;;2.90;99.90;;;;;;4991077;28;20125;-84
2021/11/28 05:35:32;;;;;;;31.10;16.65;;;2.90;99.90;;;;;;4990900;28;20129;-83
2021/11/28 05:37:58;;;;;;;29.27;16.17;;;2.80;99.90;;;;;;4963207;28;20070;-83
2021/11/28 05:40:24;;;;;;;30.20;15.95;;;2.80;99.90;;;;;;4982950;28;20396;-86
2021/11/28 05:42:52;;;;;;;28.92;15.95;;;2.70;99.90;;;;;;4987881;28;20050;-82
2021/11/28 05:45:20;;;;;;;30.38;16.38;;;2.70;99.90;;;;;;4994526;28;20033;-83
2021/11/28 05:47:46;;;;;;;28.40;15.82;;;2.60;99.90;;;;;;4983387;28;20503;-83
2021/11/28 05:50:13;;;;;;;32.90;17.08;;;2.60;99.90;;;;;;4991095;28;20034;-85
2021/11/28 05:52:40;;;;;;;30.67;16.23;;;2.50;99.90;;;;;;4999077;28;20038;-84
2021/11/28 05:55:06;;;;;;;37.58;18.98;;;2.50;99.90;;;;;;4971490;28;20038;-83
2021/11/28 05:57:32;;;;;;;28.75;15.73;;;2.50;99.90;;;;;;4987682;28;20080;-85
2021/11/28 05:59:58;;;;;;;33.17;17.98;;;2.50;99.90;;;;;;4982579;28;20042;-83
2021/11/28 06:02:23;;;;;;;28.08;15.90;;;2.40;99.90;;;;;;4986635;28;20096;-83
2021/11/28 06:04:49;;;;;;;32.00;16.85;;;2.40;99.90;;;;;;4984948;28;20042;-83
2021/11/28 06:07:14;;;;;;;28.33;15.77;;;2.40;99.90;;;;;;4981958;28;20030;-85
2021/11/28 06:09:40;;;;;;;30.17;15.55;;;2.40;99.90;;;;;;4988320;28;20037;-83
2021/11/28 06:12:06;;;;;;;30.38;15.55;;;2.30;99.90;;;;;;4981379;28;20060;-83
2021/11/28 06:14:32;;;;;;;78.05;15.07;;;2.30;99.90;;;;;;4998043;28;20069;-83
2021/11/28 06:16:57;;;;;;;99.22;12.55;;;2.20;99.90;;;;;;4988081;28;20488;-84
2021/11/28 06:19:23;;;;;;;175.85;14.30;;;2.20;99.90;;;;;;4988814;28;20080;-85
2021/11/28 06:21:48;;;;;;;103.60;13.25;;;2.10;99.90;;;;;;4964575;28;20528;-83
2021/11/28 06:24:15;;;;;;;87.90;13.05;;;2.10;99.90;;;;;;4985433;28;20042;-83
2021/11/28 06:26:41;;;;;;;50.05;10.68;;;2.10;99.90;;;;;;4975593;28;20081;-83
2021/11/28 06:29:06;;;;;;;116.68;12.07;;;2.00;99.90;;;;;;4973972;28;20041;-83
2021/11/28 06:31:32;;;;;;;166.85;12.35;;;2.00;99.90;;;;;;5005313;28;20093;-82
2021/11/28 06:33:57;;;;;;;169.23;12.23;;;2.00;99.90;;;;;;4988283;28;20061;-84
2021/11/28 06:36:23;;;;;;;104.45;10.00;;;1.80;99.90;;;;;;4988849;28;20100;-82
2021/11/28 06:38:49;;;;;;;57.42;9.23;;;1.80;99.90;;;;;;4990518;28;20076;-83
2021/11/28 06:41:15;;;;;;;48.88;10.32;;;1.70;99.90;;;;;;4987765;28;20048;-83
2021/11/28 06:43:42;;;;;;;25.27;10.00;;;1.60;99.90;;;;;;4975470;28;20085;-83
2021/11/28 06:46:07;;;;;;;21.40;10.13;;;1.60;99.90;;;;;;4996043;28;20313;-83
2021/11/28 06:48:33;;;;;;;82.13;11.70;;;1.60;99.90;;;;;;4972943;28;20041;-84
2021/11/28 06:50:59;;;;;;;30.88;9.25;;;1.60;99.90;;;;;;4976234;28;20030;-84
2021/11/28 06:53:24;;;;;;;45.25;10.68;;;1.60;99.90;;;;;;4969988;28;20396;-84
2021/11/28 06:55:50;;;;;;;51.40;9.50;;;1.60;99.90;;;;;;4980353;28;20050;-83
2021/11/28 06:58:15;;;;;;;180.02;13.70;;;1.50;99.90;;;;;;4988290;28;20041;-83
2021/11/28 07:00:41;;;;;;;55.80;10.32;;;1.50;99.90;;;;;;4991535;28;20034;-83
2021/11/28 07:03:07;;;;;;;76.53;11.63;;;1.40;99.90;;;;;;4979777;28;20429;-83
2021/11/28 07:05:33;;;;;;;36.00;11.52;;;1.50;99.90;;;;;;4986083;28;20045;-84
2021/11/28 07:07:58;;;;;;;34.72;11.60;;;1.40;99.90;;;;;;4976527;28;20026;-83
2021/11/28 07:10:24;;;;;;;26.45;12.23;;;1.40;99.90;;;;;;4980651;28;20034;-84
2021/11/28 07:12:49;;;;;;;26.88;13.00;;;1.40;99.90;;;;;;4965458;28;20048;-86
2021/11/28 07:15:15;;;;;;;32.17;13.43;;;1.40;99.90;;;;;;4985762;28;20472;-84
2021/11/28 07:17:41;;;;;;;23.20;11.93;;;1.40;99.90;;;;;;4984494;28;20049;-84
2021/11/28 07:20:07;;;;;;;26.25;13.65;;;1.40;99.90;;;;;;4986300;28;20088;-87
2021/11/28 07:22:33;;;;;;;28.70;13.45;;;1.40;99.90;;;;;;4981997;28;20562;-83
2021/11/28 07:25:00;;;;;;;39.30;15.00;;;1.50;99.90;;;;;;4982609;28;20037;-84
2021/11/28 07:27:26;;;;;;;29.02;13.55;;;1.50;99.90;;;;;;4983030;28;20084;-81
2021/11/28 07:29:51;;;;;;;27.25;14.27;;;1.50;99.90;;;;;;4984616;28;20504;-83
2021/11/28 07:32:17;;;;;;;29.60;14.15;;;1.60;99.90;;;;;;4981701;28;20046;-82
2021/11/28 07:34:42;;;;;;;51.00;14.02;;;1.60;99.90;;;;;;4996590;28;20540;-81
2021/11/28 07:37:08;;;;;;;25.52;14.13;;;1.60;99.90;;;;;;4990849;28;20038;-82
2021/11/28 07:39:33;;;;;;;36.58;14.15;;;1.70;99.90;;;;;;4987786;28;20038;-83
2021/11/28 07:41:59;;;;;;;42.83;14.80;;;1.70;99.90;;;;;;4988511;28;20057;-82
2021/11/28 07:44:25;;;;;;;65.03;15.63;;;1.70;99.90;;;;;;4991808;28;20532;-82
2021/11/28 07:46:51;;;;;;;49.78;14.73;;;1.70;99.90;;;;;;4968120;28;20081;-83
2021/11/28 07:49:16;;;;;;;39.80;14.90;;;1.70;99.90;;;;;;4988310;28;20081;-83
2021/11/28 07:51:42;;;;;;;42.25;15.50;;;1.70;99.90;;;;;;4966661;28;20034;-83
2021/11/28 07:54:07;;;;;;;35.03;15.98;;;1.90;99.90;;;;;;4987222;28;20033;-83
2021/11/28 07:56:34;;;;;;;82.47;17.88;;;1.80;99.90;;;;;;4977027;28;20394;-83
2021/11/28 07:58:59;;;;;;;48.42;17.58;;;1.90;99.90;;;;;;4976900;28;20033;-83
2021/11/28 08:01:25;;;;;;;65.25;19.45;;;1.90;99.90;;;;;;4974964;28;20457;-83
2021/11/28 08:03:51;;;;;;;81.28;20.15;;;1.90;99.90;;;;;;4979911;28;20053;-83
2021/11/28 08:06:17;;;;;;;119.35;21.13;;;2.00;99.90;;;;;;5002986;28;20370;-83
2021/11/28 08:08:43;;;;;;;65.88;20.23;;;2.00;99.90;;;;;;4983517;28;20037;-83
2021/11/28 08:11:09;;;;;;;82.38;21.02;;;2.00;99.90;;;;;;4982753;28;20053;-83
2021/11/28 08:13:34;;;;;;;71.97;21.40;;;2.10;99.90;;;;;;4990069;28;20034;-84
2021/11/28 08:16:00;;;;;;;102.85;20.88;;;2.10;99.90;;;;;;4991928;28;20060;-83
2021/11/28 08:18:26;;;;;;;81.78;20.77;;;2.10;99.90;;;;;;4989248;28;20504;-83
2021/11/28 08:20:52;;;;;;;77.25;20.90;;;2.20;99.90;;;;;;4989963;28;20042;-83
2021/11/28 08:23:18;;;;;;;67.20;20.25;;;2.20;99.90;;;;;;4988402;28;20046;-83
2021/11/28 08:25:43;;;;;;;88.45;20.05;;;2.20;99.90;;;;;;4992908;28;20038;-84
2021/11/28 08:28:09;;;;;;;82.95;20.40;;;2.20;99.90;;;;;;4989010;28;20366;-83
2021/11/28 08:30:36;;;;;;;109.40;20.05;;;2.20;99.90;;;;;;4988753;28;20111;-83
2021/11/28 08:33:03;;;;;;;139.70;22.00;;;2.20;99.90;;;;;;4987358;28;20150;-83
2021/11/28 08:35:29;;;;;;;198.32;23.67;;;2.20;99.90;;;;;;4994632;28;20643;-83
2021/11/28 08:37:56;;;;;;;156.85;22.67;;;2.20;99.90;;;;;;4990069;28;20591;-83
2021/11/28 08:40:22;;;;;;;54.63;20.55;;;2.20;99.90;;;;;;4993286;28;20419;-83
2021/11/28 08:42:48;;;;;;;114.22;21.88;;;2.20;99.90;;;;;;4990454;28;20038;-83
2021/11/28 08:45:15;;;;;;;45.85;20.25;;;2.30;99.90;;;;;;4987673;28;20125;-83
2021/11/28 08:47:41;;;;;;;54.05;21.15;;;2.30;99.90;;;;;;4981879;28;20045;-83
2021/11/28 08:50:08;;;;;;;81.18;21.52;;;2.40;99.90;;;;;;4986827;28;20125;-83
2021/11/28 08:52:34;;;;;;;41.50;19.52;;;2.40;99.90;;;;;;4986581;28;20085;-83
2021/11/28 08:55:00;;;;;;;38.78;19.63;;;2.50;99.90;;;;;;4987590;28;20033;-83
2021/11/28 08:57:25;;;;;;;38.38;18.60;;;2.60;99.90;;;;;;4984739;28;20052;-82
2021/11/28 08:59:51;;;;;;;36.15;18.30;;;2.60;99.90;;;;;;4987848;28;20052;-83
2021/11/28 09:02:17;;;;;;;33.63;16.98;;;2.70;99.90;;;;;;4993252;28;20038;-82
2021/11/28 09:04:44;;;;;;;35.95;18.63;;;2.70;99.90;;;;;;4990649;28;20034;-82
2021/11/28 09:07:10;;;;;;;34.85;19.20;;;2.80;99.90;;;;;;5003904;28;20164;-83
2021/11/28 09:09:36;;;;;;;32.92;18.08;;;2.80;99.90;;;;;;4989579;28;20091;-82
2021/11/28 09:12:03;;;;;;;37.97;19.05;;;2.90;99.90;;;;;;4987796;28;20034;-83
2021/11/28 09:14:29;;;;;;;31.10;17.15;;;2.90;99.90;;;;;;4982394;28;20042;-85
2021/11/28 09:16:55;;;;;;;27.77;14.57;;;3.00;99.90;;;;;;4983721;28;20042;-86
2021/11/28 09:21:49;;;;;;;25.23;13.55;;;3.00;99.90;;;;;;4991277;28;20100;-86
2021/11/28 09:26:52;;;;;;;25.30;12.95;;;3.20;99.90;;;;;;4983879;28;20049;-87
2021/11/28 09:29:19;;;;;;;24.50;13.30;;;3.20;99.90;;;;;;4993094;28;20404;-88
2021/11/28 09:31:46;;;;;;;23.50;13.55;;;3.20;99.90;;;;;;4971506;28;20511;-83
2021/11/28 09:34:11;;;;;;;21.52;12.57;;;3.30;99.90;;;;;;4990222;28;20038;-82
2021/11/28 09:36:37;;;;;;;21.75;11.80;;;3.40;99.90;;;;;;4983670;28;20125;-83
2021/11/28 09:39:04;;;;;;;18.33;10.25;;;3.50;99.90;;;;;;4977542;28;20046;-87
2021/11/28 09:41:34;;;;;;;19.17;9.98;;;3.60;99.90;;;;;;4993695;28;20088;-87
2021/11/28 09:44:08;;;;;;;18.70;9.68;;;3.70;99.90;;;;;;4985473;28;20077;-86
2021/11/28 09:46:35;;;;;;;18.15;8.73;;;3.80;99.90;;;;;;4975059;28;20060;-87
2021/11/28 09:49:04;;;;;;;15.18;8.23;;;3.80;99.90;;;;;;5011325;28;20087;-86
2021/11/28 09:51:30;;;;;;;17.45;8.93;;;3.90;99.90;;;;;;4970266;28;20575;-84
2021/11/28 09:54:03;;;;;;;16.58;7.53;;;4.00;99.90;;;;;;4978344;28;20033;-85
2021/11/28 09:56:33;;;;;;;;;;;4.10;99.90;;;;;;5002381;28;20068;-85
2021/11/28 09:58:59;;;;;;;11.63;6.68;;;4.20;99.90;;;;;;4998208;28;20291;-83
2021/11/28 10:01:26;;;;;;;12.73;5.43;;;4.30;99.90;;;;;;4972931;28;20056;-83
2021/11/28 10:03:53;;;;;;;10.60;5.68;;;4.40;99.90;;;;;;4988255;28;20535;-84
2021/11/28 10:06:18;;;;;;;9.70;5.28;;;4.50;99.90;;;;;;4985421;28;20088;-84
2021/11/28 10:08:45;;;;;;;8.45;4.10;;;4.60;99.90;;;;;;4987977;28;20038;-84
2021/11/28 10:11:17;;;;;;;6.10;3.38;;;4.70;99.90;;;;;;4990455;28;20037;-84
2021/11/28 10:13:43;;;;;;;5.75;2.50;;;4.80;99.90;;;;;;4974906;28;20044;-84
2021/11/28 10:16:09;;;;;;;4.72;2.20;;;4.90;99.90;;;;;;4993190;28;20046;-85
2021/11/28 10:18:36;;;;;;;3.85;2.35;;;5.00;99.90;;;;;;4986277;28;20045;-85
2021/11/28 10:21:02;;;;;;;3.88;2.00;;;5.00;99.90;;;;;;4994563;28;20048;-85
2021/11/28 10:23:27;;;;;;;3.30;1.60;;;5.10;99.90;;;;;;4991453;28;20408;-85
2021/11/28 10:26:15;;;;;;;4.25;1.52;;;5.10;99.90;;;;;;4985932;28;20047;-85
2021/11/28 10:29:04;;;;;;;4.47;1.50;;;5.10;99.90;;;;;;4972266;28;20057;-85
2021/11/28 10:31:31;;;;;;;2.60;1.30;;;5.20;99.90;;;;;;4976265;28;20046;-85
2021/11/28 10:34:13;;;;;;;2.25;1.30;;;5.20;99.90;;;;;;4990248;28;20592;-84
2021/11/28 10:36:39;;;;;;;2.30;1.38;;;5.20;99.90;;;;;;4965772;28;20035;-84
2021/11/28 10:39:22;;;;;;;1.90;1.17;;;5.20;99.90;;;;;;4976776;28;20628;-84
2021/11/28 10:41:54;;;;;;;2.72;1.30;;;5.20;99.90;;;;;;4982715;28;20474;-86
2021/11/28 10:44:22;;;;;;;1.83;1.00;;;5.10;99.90;;;;;;4990337;28;20112;-84
2021/11/28 10:46:48;;;;;;;2.08;0.95;;;5.10;99.90;;;;;;4983852;28;20034;-84
2021/11/28 10:49:20;;;;;;;2.50;1.20;;;5.20;99.90;;;;;;4973326;28;20635;-84
2021/11/28 10:51:49;;;;;;;2.42;0.88;;;5.20;99.90;;;;;;4988357;28;20361;-84
2021/11/28 10:54:28;;;;;;;1.55;1.00;;;5.10;99.90;;;;;;4984789;28;20043;-86
2021/11/28 10:57:21;;;;;;;2.13;1.17;;;5.10;99.90;;;;;;4988293;28;20694;-84
2021/11/28 10:59:55;;;;;;;1.02;0.75;;;5.10;99.90;;;;;;4980405;28;20566;-84
2021/11/28 11:02:29;;;;;;;2.70;0.85;;;5.20;99.90;;;;;;4984386;28;20042;-85
2021/11/28 11:04:57;;;;;;;2.35;0.73;;;5.10;99.90;;;;;;4982323;28;20105;-84
2021/11/28 11:07:24;;;;;;;2.30;0.70;;;5.20;99.90;;;;;;4969736;28;20034;-84
2021/11/28 11:09:52;;;;;;;1.40;1.02;;;5.20;99.90;;;;;;4973030;28;20034;-88
2021/11/28 11:12:24;;;;;;;1.67;0.77;;;5.20;99.90;;;;;;4974584;28;20068;-85
2021/11/28 11:14:52;;;;;;;1.27;0.70;;;5.20;99.90;;;;;;4975434;28;20942;-85
2021/11/28 11:17:20;;;;;;;1.92;0.57;;;5.20;99.90;;;;;;4965797;28;20487;-86
2021/11/28 11:19:48;;;;;;;2.33;1.30;;;5.10;99.90;;;;;;4968453;28;20038;-86
2021/11/28 11:22:25;;;;;;;1.05;0.70;;;5.10;99.90;;;;;;4970265;28;20400;-86
2021/11/28 11:25:03;;;;;;;1.40;0.57;;;5.10;99.90;;;;;;4987280;28;20090;-84
2021/11/28 11:27:33;;;;;;;0.82;0.70;;;5.10;99.90;;;;;;4968522;28;20029;-85
2021/11/28 11:30:08;;;;;;;1.77;0.70;;;5.10;99.90;;;;;;4988424;28;20041;-85
2021/11/28 11:32:50;;;;;;;2.40;0.50;;;5.10;99.90;;;;;;4969311;28;20042;-83
2021/11/28 11:35:24;;;;;;;0.82;0.60;;;5.10;99.90;;;;;;4976996;28;20041;-82
2021/11/28 11:37:52;;;;;;;2.17;0.70;;;5.10;99.90;;;;;;4982100;28;20057;-83
2021/11/28 11:40:21;;;;;;;0.80;0.45;;;5.10;99.90;;;;;;4996374;28;20311;-83
2021/11/28 11:42:48;;;;;;;1.92;0.50;;;5.10;99.90;;;;;;4982018;28;20589;-83
2021/11/28 11:45:19;;;;;;;1.38;0.45;;;5.10;99.90;;;;;;4983161;28;20509;-82
2021/11/28 11:47:45;;;;;;;1.27;0.50;;;5.10;99.90;;;;;;4990837;28;20038;-83
2021/11/28 11:50:15;;;;;;;0.60;0.60;;;5.10;99.90;;;;;;4986592;28;20073;-85
2021/11/28 11:52:41;;;;;;;0.63;0.43;;;5.10;99.90;;;;;;4978683;28;20049;-85
2021/11/28 11:55:09;;;;;;;3.25;0.70;;;5.10;99.90;;;;;;4972807;28;20401;-83
2021/11/28 11:57:40;;;;;;;1.08;0.50;;;5.20;99.90;;;;;;4990777;28;20052;-86
2021/11/28 12:00:06;;;;;;;2.00;0.40;;;5.10;99.90;;;;;;4985386;28;20048;-84
2021/11/28 12:02:31;;;;;;;0.88;0.50;;;5.20;99.90;;;;;;4987107;28;20085;-83
2021/11/28 12:04:59;;;;;;;1.45;0.60;;;5.10;99.90;;;;;;4993167;28;20076;-84
2021/11/28 12:07:49;;;;;;;2.22;0.95;;;5.10;99.90;;;;;;4982437;28;20033;-85
2021/11/28 12:10:36;;;;;;;5.07;0.70;;;5.00;99.90;;;;;;4976516;28;20038;-83
2021/11/28 12:13:39;;;;;;;0.47;0.47;;;4.90;99.90;;;;;;4981713;28;20057;-84
2021/11/28 12:16:08;;;;;;;0.70;0.50;;;4.90;99.90;;;;;;4980322;28;20499;-84
2021/11/28 12:18:44;;;;;;;2.38;0.60;;;4.90;99.90;;;;;;5001842;28;20046;-84
2021/11/28 12:21:36;;;;;;;2.08;0.60;;;4.80;99.90;;;;;;4982264;28;20512;-85
2021/11/28 12:24:19;;;;;;;4.38;0.75;;;4.80;99.90;;;;;;4995619;28;20084;-82
2021/11/28 12:26:54;;;;;;;2.40;0.70;;;4.80;99.90;;;;;;4994788;28;20053;-81
2021/11/28 12:29:21;;;;;;;1.95;0.50;;;4.90;99.90;;;;;;5007349;28;20034;-83
2021/11/28 12:31:53;;;;;;;3.00;0.80;;;4.90;99.90;;;;;;4993239;28;20095;-83
2021/11/28 12:34:41;;;;;;;2.15;0.77;;;4.90;99.90;;;;;;5000770;28;20386;-81
2021/11/28 12:37:23;;;;;;;1.38;0.47;;;4.90;99.90;;;;;;4999822;28;20034;-82
2021/11/28 12:39:49;;;;;;;1.83;0.73;;;4.90;99.90;;;;;;5011441;28;20168;-83
2021/11/28 12:42:23;;;;;;;4.47;2.17;;;4.80;99.90;;;;;;5002772;28;20042;-82
2021/11/28 12:44:49;;;;;;;2.17;1.00;;;4.80;99.90;;;;;;5001956;28;20680;-81
2021/11/28 12:47:14;;;;;;;0.80;0.50;;;4.70;99.90;;;;;;4996827;28;20034;-81
2021/11/28 12:49:58;;;;;;;2.38;0.80;;;4.70;99.90;;;;;;4994984;28;20057;-84
2021/11/28 12:52:24;;;;;;;3.25;0.73;;;4.70;99.90;;;;;;5007148;28;20096;-83